Latest Weather Observations for Warruwi

IDD60801

Issued at 7:05 pm CST Monday 20 October 2014 (issued every 30 minutes, with the page automatically refreshed every 10 minutes)

About weather observations | Map of weather stations | Latest weather observations for NT | Other Formats
Station Details ID: 014401 Name: WARRUWI AIRPORT Lat: -11.65 Lon: 133.38 Height: 19.2 m
Data from the previous 72 hours. | See also: Recent months at Warruwi
Date/Time
CST
Temp
°C
App
Temp
°C
Dew
Point
Rel
Hum
%
Delta-T
°C
Wind Press
QNH
hPa
Press
MSL
hPa
Rain
since 9 am
mm
Dir
 
Spd
km/h
Gust
km/h
Spd
kts
Gust
kts
20/07:00pm 27.2 29.6 21.5 71 3.8 ENE 11 20 6 11 1012.0 1011.8 0.0
20/06:30pm 27.3 29.3 21.6 71 3.8 NE 13 20 7 11 1011.5 1011.3 0.0
20/06:00pm 27.7 29.4 21.7 70 4.0 NE 15 24 8 13 1011.1 1010.9 0.0
20/05:30pm 28.1 29.5 21.9 69 4.2 NE 17 28 9 15 1010.9 1010.7 0.0
20/05:00pm 28.6 30.2 21.4 65 4.8 NE 15 32 8 17 1010.7 1010.5 0.0
20/04:30pm 29.1 29.9 21.3 62 5.2 NE 19 33 10 18 1010.7 1010.5 0.0
20/04:00pm 29.6 30.2 21.0 60 5.7 NE 19 30 10 16 1010.9 1010.7 0.0
20/03:30pm 29.7 29.8 20.0 56 6.4 ENE 19 37 10 20 1011.1 1010.9 0.0
20/03:00pm 30.4 31.2 20.6 55 6.5 ENE 17 26 9 14 1011.5 1011.3 0.0
20/02:30pm 31.0 31.6 20.3 53 7.1 E 17 28 9 15 1011.8 1011.6 0.0
20/02:00pm 30.8 31.2 20.7 55 6.7 E 19 30 10 16 1012.2 1012.0 0.0
20/01:30pm 30.3 30.5 20.5 55 6.5 E 20 32 11 17 1012.9 1012.7 0.0
20/01:00pm 30.7 31.0 20.3 53 6.9 E 19 26 10 14 1013.4 1013.2 0.0
20/12:30pm 31.1 30.9 19.4 49 7.7 E 19 28 10 15 1013.9 1013.7 0.0
20/12:00pm 31.1 31.7 21.0 55 6.8 E 19 26 10 14 1014.5 1014.3 0.0
20/11:30am 30.1 30.4 20.4 56 6.4 E 19 28 10 15 1015.0 1014.8 0.0
20/11:00am 30.4 30.1 20.3 54 6.7 E 22 30 12 16 1015.2 1015.0 0.0
20/10:30am 29.5 28.9 20.6 58 5.9 E 24 30 13 16 1015.4 1015.2 0.0
20/10:00am 29.6 29.0 20.5 58 6.0 E 24 35 13 19 1015.6 1015.4 0.0
20/09:30am 29.0 29.1 20.4 59 5.7 E 20 28 11 15 1015.4 1015.2 0.0
20/09:00am 28.6 29.1 21.1 64 5.0 E 20 28 11 15 1015.2 1015.0 0.0
20/08:30am 27.7 28.6 22.0 71 3.8 ESE 20 28 11 15 1015.5 1015.3 0.0
20/08:00am 27.2 28.5 21.7 72 3.7 ESE 17 22 9 12 1015.5 1015.3 0.0
20/07:30am 26.0 27.6 20.8 73 3.4 SSE 13 20 7 11 1015.2 1015.0 0.0
20/07:00am 26.3 26.7 20.6 71 3.7 ESE 19 28 10 15 1014.6 1014.4 0.0
20/06:30am 25.8 25.3 20.8 74 3.3 E 24 35 13 19 1013.8 1013.6 0.0
20/06:00am 25.5 24.2 20.7 75 3.1 E 28 39 15 21 1013.4 1013.2 0.0
20/05:30am 25.7 23.5 20.3 72 3.5 E 32 46 17 25 1013.2 1013.0 0.0
20/05:00am 25.9 25.3 20.5 72 3.5 E 24 33 13 18 1013.2 1013.0 0.0
20/04:30am 26.1 25.4 21.1 74 3.3 ESE 26 33 14 18 1013.1 1012.9 0.0
20/04:00am 26.4 26.4 20.9 72 3.6 ESE 22 30 12 16 1013.1 1012.9 0.0
20/03:30am 27.1 28.1 21.8 73 3.5 ESE 19 26 10 14 1012.9 1012.7 0.0
20/03:00am 27.3 28.2 22.7 76 3.1 E 22 32 12 17 1012.7 1012.5 0.0
20/02:30am 27.1 28.0 22.7 77 3.0 E 22 30 12 16 1012.8 1012.6 0.0
20/02:00am 27.1 28.6 22.7 77 3.0 E 19 32 10 17 1013.0 1012.8 0.0
20/01:30am 27.1 28.6 22.7 77 3.0 E 19 28 10 15 1013.2 1013.0 0.0
20/01:00am 27.0 28.6 22.8 78 2.8 E 19 30 10 16 1013.3 1013.1 0.0
20/12:30am 27.1 28.4 22.7 77 3.0 E 20 35 11 19 1013.7 1013.5 0.0
20/12:00am 27.1 28.3 22.5 76 3.1 E 20 28 11 15 1014.0 1013.8 0.0
 
Date/Time
CST
Temp
°C
App
Temp
°C
Dew
Point
Rel
Hum
%
Delta-T
°C
Wind Press
QNH
hPa
Press
MSL
hPa
Rain
since 9 am
mm
Dir
 
Spd
km/h
Gust
km/h
Spd
kts
Gust
kts
19/11:30pm 27.2 29.0 22.6 76 3.1 ENE 17 28 9 15 1014.1 1013.9 0.0
19/11:00pm 27.3 29.1 22.5 75 3.2 ENE 17 30 9 16 1014.3 1014.1 0.0
19/10:30pm 27.3 29.2 22.7 76 3.1 E 17 30 9 16 1014.4 1014.2 0.0
19/10:00pm 27.3 29.9 22.7 76 3.1 ENE 13 24 7 13 1014.2 1014.0 0.0
19/09:30pm 27.3 29.9 22.7 76 3.1 ENE 13 24 7 13 1013.8 1013.6 0.0
19/09:00pm 27.2 29.8 22.6 76 3.1 ENE 13 26 7 14 1013.4 1013.2 0.0
19/08:30pm 27.2 29.0 22.6 76 3.1 ENE 17 28 9 15 1013.0 1012.8 0.0
19/08:00pm 27.2 29.8 22.6 76 3.1 ENE 13 22 7 12 1012.7 1012.5 0.0
19/07:30pm 27.3 29.2 22.7 76 3.1 ENE 17 24 9 13 1012.4 1012.2 0.0
19/07:00pm 27.5 29.8 22.7 75 3.3 ENE 15 24 8 13 1012.0 1011.8 0.0
19/06:30pm 27.7 30.2 22.4 73 3.6 ENE 13 22 7 12 1011.8 1011.6 0.0
19/06:00pm 28.3 30.2 22.1 69 4.2 E 15 22 8 12 1011.4 1011.2 0.0
19/05:30pm 28.7 30.3 21.5 65 4.8 ENE 15 24 8 13 1011.1 1010.9 0.0
19/05:00pm 29.2 30.9 21.7 64 5.0 ENE 15 24 8 13 1011.1 1010.9 0.0
19/04:30pm 29.8 31.1 21.7 61 5.5 ENE 17 24 9 13 1011.2 1011.0 0.0
19/04:00pm 29.9 31.6 21.6 61 5.6 ENE 15 28 8 15 1011.2 1011.0 0.0
19/03:30pm 30.2 31.1 21.6 60 5.8 ENE 19 32 10 17 1011.3 1011.1 0.0
19/03:00pm 30.7 32.0 22.6 62 5.5 E 20 33 11 18 1011.6 1011.4 0.0
19/02:30pm 30.9 32.1 22.5 61 5.7 E 20 32 11 17 1011.8 1011.6 0.0
19/02:00pm 30.4 31.3 22.0 60 5.7 E 20 30 11 16 1012.2 1012.0 0.0
19/01:30pm 30.9 31.7 22.5 61 5.7 E 22 30 12 16 1012.6 1012.4 0.0
19/01:00pm 30.7 31.7 21.8 59 6.0 E 19 28 10 15 1013.1 1012.9 0.0
19/12:30pm 31.3 32.2 22.0 57 6.3 E 20 32 11 17 1013.6 1013.4 0.0
19/12:00pm 30.2 30.4 21.3 59 6.0 E 22 32 12 17 1014.0 1013.8 0.0
19/11:30am 30.1 30.8 21.5 60 5.8 E 20 32 11 17 1014.5 1014.3 0.0
19/11:00am 30.2 29.8 21.0 58 6.1 E 24 33 13 18 1014.7 1014.5 0.0
19/10:30am 29.8 30.3 21.2 60 5.7 E 20 32 11 17 1014.9 1014.7 0.0
19/10:00am 29.5 29.5 20.9 60 5.7 E 22 33 12 18 1014.9 1014.7 0.0
19/09:30am 29.9 30.8 21.6 61 5.6 E 19 26 10 14 1014.9 1014.7 0.0
19/09:00am 29.1 29.7 21.3 62 5.2 E 20 33 11 18 1014.7 1014.5 0.0
19/08:30am 28.7 29.2 21.2 64 5.0 E 20 32 11 17 1014.6 1014.4 0.0
19/08:00am 28.7 29.4 21.5 65 4.8 E 20 30 11 16 1014.3 1014.1 0.0
19/07:30am 27.9 28.2 20.5 64 4.9 E 19 30 10 16 1014.0 1013.8 0.0
19/07:00am 27.7 29.0 21.7 70 4.0 E 17 28 9 15 1013.6 1013.4 0.0
19/06:30am 27.2 29.5 23.4 80 2.6 ESE 17 22 9 12 1013.1 1012.9 0.0
19/06:00am 27.4 29.3 23.4 79 2.7 E 19 30 10 16 1012.9 1012.7 0.0
19/05:30am 27.4 29.4 23.0 77 3.0 E 17 26 9 14 1012.5 1012.3 0.0
19/05:00am 27.3 29.5 23.3 79 2.7 E 17 30 9 16 1012.4 1012.2 0.0
19/04:30am 27.3 29.2 23.5 80 2.6 E 19 28 10 15 1012.1 1011.9 0.0
19/04:00am 27.3 29.0 23.1 78 2.9 E 19 30 10 16 1012.0 1011.8 0.0
19/03:30am 27.4 29.1 23.0 77 3.0 E 19 28 10 15 1012.0 1011.8 0.0
19/03:00am 27.4 29.4 23.6 80 2.6 E 19 28 10 15 1012.2 1012.0 0.0
19/02:30am 27.5 28.9 23.5 79 2.7 E 22 32 12 17 1012.3 1012.1 0.0
19/02:00am 27.6 29.4 23.6 79 2.7 E 20 32 11 17 1012.5 1012.3 0.0
19/01:30am 27.5 29.3 23.3 78 2.9 E 19 33 10 18 1012.6 1012.4 0.0
19/01:00am 27.5 29.8 23.5 79 2.7 E 17 26 9 14 1012.9 1012.7 0.0
19/12:30am 27.4 29.7 23.4 79 2.7 E 17 28 9 15 1013.3 1013.1 0.0
19/12:00am 27.5 30.7 23.7 80 2.6 E 13 24 7 13 1013.5 1013.3 0.0
 
Date/Time
CST
Temp
°C
App
Temp
°C
Dew
Point
Rel
Hum
%
Delta-T
°C
Wind Press
QNH
hPa
Press
MSL
hPa
Rain
since 9 am
mm
Dir
 
Spd
km/h
Gust
km/h
Spd
kts
Gust
kts
18/11:30pm 27.5 29.4 23.5 79 2.7 E 19 26 10 14 1013.7 1013.5 0.0
18/11:00pm 27.3 30.4 23.5 80 2.6 ENE 13 22 7 12 1013.7 1013.5 0.0
18/10:30pm 27.0 30.0 23.3 80 2.5 ENE 13 20 7 11 1013.7 1013.5 0.0
18/10:00pm 26.9 30.4 22.9 79 2.7 ENE 9 17 5 9 1013.5 1013.3 0.0
18/09:30pm 26.9 31.1 23.2 80 2.5 ENE 6 11 3 6 1013.2 1013.0 0.0
18/09:00pm 26.9 31.1 23.2 80 2.5 NE 6 9 3 5 1012.8 1012.6 0.0
18/08:30pm 27.0 30.9 23.0 79 2.7 NE 7 13 4 7 1012.6 1012.4 0.0
18/08:00pm 27.1 31.1 23.1 79 2.7 ENE 7 11 4 6 1012.6 1012.4 0.0
18/07:30pm 27.3 31.4 22.9 77 3.0 NE 6 9 3 5 1012.6 1012.4 0.0
18/07:00pm 27.5 31.3 22.4 73 3.4 NE 6 11 3 6 1012.1 1011.9 0.0
18/06:30pm 27.8 31.0 22.3 72 3.7 ENE 9 15 5 8 1011.9 1011.7 0.0
18/06:00pm 28.3 31.2 22.5 71 3.9 ENE 11 20 6 11 1011.6 1011.4 0.0
18/05:30pm 29.3 32.4 22.8 68 4.4 E 11 19 6 10 1011.3 1011.1 0.0
18/05:00pm 29.4 31.5 22.4 66 4.8 E 15 24 8 13 1011.0 1010.8 0.0
18/04:30pm 29.5 31.1 22.2 65 4.9 E 17 24 9 13 1010.9 1010.7 0.0
18/04:00pm 30.0 31.5 22.7 65 5.0 E 19 24 10 13 1011.0 1010.8 0.0
18/03:30pm 30.0 31.6 22.2 63 5.3 E 17 24 9 13 1011.2 1011.0 0.0
18/03:00pm 30.0 31.1 21.9 62 5.5 E 19 26 10 14 1011.5 1011.3 0.0
18/02:30pm 30.4 31.5 22.0 60 5.7 E 19 24 10 13 1011.7 1011.5 0.0
18/02:00pm 30.4 31.4 21.8 60 5.8 E 19 28 10 15 1012.2 1012.0 0.0
18/01:30pm 30.8 31.9 22.4 61 5.7 E 20 30 11 16 1012.4 1012.2 0.0
18/01:00pm 30.7 31.6 22.0 59 5.9 E 20 32 11 17 1012.8 1012.6 0.0
18/12:30pm 31.4 32.9 22.7 60 6.0 E 19 28 10 15 1013.1 1012.9 0.0
18/12:00pm 30.2 32.0 22.6 63 5.2 E 17 22 9 12 1013.8 1013.6 0.0
18/11:30am 30.5 32.9 22.9 64 5.2 E 15 22 8 12 1014.2 1014.0 0.0
18/11:00am 29.9 31.5 22.1 63 5.3 E 17 26 9 14 1014.5 1014.3 0.0
18/10:30am 29.0 30.1 21.2 62 5.2 E 17 20 9 11 1014.7 1014.5 0.0
18/10:00am 28.9 30.2 20.9 62 5.3 ESE 15 20 8 11 1014.7 1014.5 0.0
18/09:30am 28.9 29.6 20.4 60 5.6 ESE 17 22 9 12 1014.9 1014.7 0.0
18/09:00am 28.6 29.1 20.1 60 5.6 E 17 22 9 12 1014.8 1014.6 0.0
18/08:30am 28.2 28.9 19.7 60 5.5 E 15 20 8 11 1014.8 1014.6 0.0
18/08:00am 27.9 29.0 19.7 61 5.3 ESE 13 19 7 10 1014.5 1014.3 0.0
18/07:30am 27.6 29.7 20.2 64 4.8 ESE 9 13 5 7 1014.1 1013.9 0.0
18/07:00am 26.3 28.4 20.2 69 4.0 SE 9 11 5 6 1013.8 1013.6 0.0
18/06:30am 25.0 27.5 20.3 75 3.1 ESE 7 11 4 6 1013.3 1013.1 0.0
18/06:00am 24.8 27.5 20.3 76 2.9 SE 6 9 3 5 1013.0 1012.8 0.0
18/05:30am 25.0 28.1 21.1 79 2.6 SE 6 7 3 4 1012.7 1012.5 0.0
18/05:00am 25.6 28.6 21.3 77 2.8 SE 7 11 4 6 1012.5 1012.3 0.0
18/04:30am 26.2 29.2 21.2 74 3.3 SE 7 9 4 5 1012.2 1012.0 0.0
18/04:00am 27.3 28.1 19.1 61 5.3 E 13 17 7 9 1012.1 1011.9 0.0
18/03:30am 27.5 28.6 19.6 62 5.1 E 13 20 7 11 1011.9 1011.7 0.0
18/03:00am 27.4 29.7 21.4 70 4.0 E 11 19 6 10 1012.1 1011.9 0.0
18/02:30am 27.5 29.0 21.3 69 4.1 E 15 24 8 13 1012.2 1012.0 0.0
18/02:00am 27.4 29.0 21.4 70 4.0 E 15 22 8 12 1012.5 1012.3 0.0
18/01:30am 27.1 29.1 22.3 75 3.2 E 15 22 8 12 1013.0 1012.8 0.0
18/01:00am 27.0 29.7 22.8 78 2.8 E 13 20 7 11 1013.2 1013.0 0.0
18/12:30am 27.0 29.8 23.0 79 2.7 E 13 20 7 11 1013.4 1013.2 0.0
18/12:00am 26.9 29.9 22.7 78 2.8 E 11 17 6 9 1013.4 1013.2 0.0
 
Date/Time
CST
Temp
°C
App
Temp
°C
Dew
Point
Rel
Hum
%
Delta-T
°C
Wind Press
QNH
hPa
Press
MSL
hPa
Rain
since 9 am
mm
Dir
 
Spd
km/h
Gust
km/h
Spd
kts
Gust
kts
17/11:30pm 26.6 30.6 22.7 79 2.6 E 6 9 3 5 1013.5 1013.3 0.0
17/11:00pm 26.5 30.0 21.9 76 3.1 ENE 6 7 3 4 1013.7 1013.5 0.0
17/10:30pm 26.6 30.5 21.8 75 3.2 E 4 7 2 4 1013.6 1013.4 0.0
17/10:00pm 26.6 30.4 21.6 74 3.3 ENE 4 7 2 4 1013.5 1013.3 0.0
17/09:30pm 26.8 30.4 21.3 72 3.7 ENE 4 6 2 3 1013.1 1012.9 0.0
17/09:00pm 26.9 29.7 20.5 68 4.2 ENE 6 9 3 5 1012.9 1012.7 0.0
17/08:30pm 27.3 29.5 18.3 58 5.7 ENE 4 9 2 5 1012.5 1012.3 0.0
17/08:00pm 27.6 28.9 17.5 54 6.4 ENE 7 13 4 7 1012.0 1011.8 0.0
17/07:30pm 27.6 29.0 17.7 54 6.3 ENE 7 13 4 7 1011.8 1011.6 0.0

Other Formats:

Comma delimited format used in spreadsheet applications
http://www.bom.gov.au/fwo/IDD60801/IDD60801.94139.axf

JavaScript Object Notation format (JSON) in row-major order
http://www.bom.gov.au/fwo/IDD60801/IDD60801.94139.json